createdAt,value
2023-04-06T00:01:48.059Z,15.13
2023-04-06T00:04:15.771Z,14.50
2023-04-06T00:06:43.276Z,15.33
2023-04-06T00:09:10.850Z,16.10
2023-04-06T00:11:38.229Z,16.20
2023-04-06T00:14:05.738Z,15.07
2023-04-06T00:16:33.175Z,15.10
2023-04-06T00:19:00.599Z,14.33
2023-04-06T00:21:28.297Z,15.30
2023-04-06T00:23:56.106Z,14.87
2023-04-06T00:26:23.431Z,15.23
2023-04-06T00:28:53.136Z,17.03
2023-04-06T00:31:20.487Z,14.83
2023-04-06T00:33:49.427Z,13.83
2023-04-06T00:36:16.832Z,17.40
2023-04-06T00:38:44.326Z,17.03
2023-04-06T00:41:11.766Z,15.43
2023-04-06T00:43:39.088Z,14.13
2023-04-06T00:46:07.029Z,15.90
2023-04-06T00:48:34.615Z,15.47
2023-04-06T00:51:02.772Z,15.50
2023-04-06T00:53:30.408Z,16.33
2023-04-06T00:55:59.391Z,16.30
2023-04-06T00:58:27.136Z,15.10
2023-04-06T01:01:02.646Z,15.97
2023-04-06T01:03:30.135Z,16.53
2023-04-06T01:05:59.393Z,17.33
2023-04-06T01:08:33.198Z,17.73
2023-04-06T01:11:13.452Z,17.38
2023-04-06T01:13:41.101Z,16.00
2023-04-06T01:16:16.607Z,18.23
2023-04-06T01:19:13.096Z,18.00
2023-04-06T01:21:45.096Z,17.40
2023-04-06T01:24:30.685Z,16.10
2023-04-06T01:27:11.690Z,18.27
2023-04-06T01:29:48.057Z,18.33
2023-04-06T01:32:22.585Z,18.43
2023-04-06T01:34:52.255Z,18.90
2023-04-06T01:37:19.778Z,19.63
2023-04-06T01:39:47.595Z,19.13
2023-04-06T01:42:24.150Z,20.00
2023-04-06T01:44:52.006Z,19.33
2023-04-06T01:47:19.399Z,19.90
2023-04-06T01:49:47.469Z,17.73
2023-04-06T01:52:16.800Z,19.60
2023-04-06T01:54:51.712Z,17.93
2023-04-06T01:57:36.041Z,18.10
2023-04-06T02:00:15.529Z,17.00
2023-04-06T02:02:47.487Z,15.43
2023-04-06T02:05:21.948Z,15.87
2023-04-06T02:07:51.326Z,15.87
2023-04-06T02:10:23.159Z,15.87
2023-04-06T02:12:50.708Z,14.67
2023-04-06T02:15:24.244Z,14.40
2023-04-06T02:17:52.658Z,15.00
2023-04-06T02:20:20.163Z,14.83
2023-04-06T02:22:47.611Z,15.03
2023-04-06T02:25:15.110Z,14.23
2023-04-06T02:27:42.608Z,16.67
2023-04-06T02:30:10.847Z,16.90
2023-04-06T02:32:38.278Z,15.63
2023-04-06T02:35:06.125Z,16.23
2023-04-06T02:37:35.440Z,17.03
2023-04-06T02:40:02.731Z,17.60
2023-04-06T02:42:31.828Z,16.47
2023-04-06T02:44:59.206Z,18.07
2023-04-06T02:47:31.141Z,17.37
2023-04-06T02:49:58.474Z,18.03
2023-04-06T02:52:26.156Z,15.97
2023-04-06T02:54:53.482Z,18.63
2023-04-06T02:57:26.752Z,16.40
2023-04-06T02:59:54.302Z,16.90
2023-04-06T03:02:28.926Z,16.90
2023-04-06T03:05:05.629Z,16.43
2023-04-06T03:07:37.687Z,18.20
2023-04-06T03:10:06.328Z,18.70
2023-04-06T03:12:34.019Z,17.40
2023-04-06T03:15:18.092Z,17.17
2023-04-06T03:17:50.930Z,17.37
2023-04-06T03:20:43.708Z,19.60
2023-04-06T03:23:11.795Z,18.17
2023-04-06T03:25:42.510Z,21.80
2023-04-06T03:28:14.338Z,21.67
2023-04-06T03:30:50.902Z,36.80
2023-04-06T03:33:24.566Z,35.27
2023-04-06T03:35:55.974Z,98.63
2023-04-06T03:38:26.304Z,211.77
2023-04-06T03:40:54.680Z,207.70
2023-04-06T03:43:26.014Z,109.10
2023-04-06T03:45:53.396Z,88.37
2023-04-06T03:48:21.250Z,147.93
2023-04-06T03:50:48.783Z,127.73
2023-04-06T03:53:16.328Z,92.63
2023-04-06T03:55:43.521Z,108.47
2023-04-06T03:58:11.022Z,122.83
2023-04-06T04:00:38.876Z,141.27
2023-04-06T04:03:06.585Z,140.73
2023-04-06T04:05:33.938Z,105.77
2023-04-06T04:08:01.421Z,84.37
2023-04-06T04:10:28.742Z,79.63
2023-04-06T04:12:56.194Z,80.37
2023-04-06T04:15:24.031Z,61.27
2023-04-06T04:17:51.760Z,50.13
2023-04-06T04:20:19.290Z,42.43
2023-04-06T04:22:46.614Z,35.37
2023-04-06T04:25:15.675Z,36.67
2023-04-06T04:27:47.821Z,33.20
2023-04-06T04:30:16.457Z,31.47
2023-04-06T04:32:43.847Z,26.67
2023-04-06T04:35:12.370Z,25.70
2023-04-06T04:40:11.796Z,25.13
2023-04-06T04:42:53.412Z,25.37
2023-04-06T04:45:27.368Z,27.83
2023-04-06T04:47:54.822Z,25.30
2023-04-06T04:52:56.766Z,27.00
2023-04-06T04:55:27.131Z,26.52
2023-04-06T04:57:58.087Z,26.93
2023-04-06T05:00:43.221Z,25.90
2023-04-06T05:03:24.334Z,28.43
2023-04-06T05:06:07.310Z,28.27
2023-04-06T05:08:37.922Z,25.40
2023-04-06T05:11:06.078Z,26.93
2023-04-06T05:13:37.987Z,26.57
2023-04-06T05:16:11.973Z,26.53
2023-04-06T05:18:39.506Z,27.73
2023-04-06T05:21:07.685Z,27.53
2023-04-06T05:23:48.543Z,26.63
2023-04-06T05:26:15.963Z,26.50
2023-04-06T05:28:45.406Z,25.00
2023-04-06T05:31:13.790Z,27.45
2023-04-06T05:33:47.428Z,26.67
2023-04-06T05:36:17.298Z,28.03
2023-04-06T05:38:47.170Z,29.70
2023-04-06T05:41:34.773Z,26.47
2023-04-06T05:44:02.400Z,27.17
2023-04-06T05:46:31.146Z,27.37
2023-04-06T05:49:00.221Z,29.20
2023-04-06T05:51:31.369Z,27.90
2023-04-06T05:53:59.122Z,27.10
2023-04-06T05:56:27.382Z,26.63
2023-04-06T05:58:54.969Z,25.87
2023-04-06T06:01:27.851Z,24.27
2023-04-06T06:03:55.252Z,25.00
2023-04-06T06:06:27.119Z,23.08
2023-04-06T06:09:07.704Z,21.87
2023-04-06T06:11:41.711Z,21.23
2023-04-06T06:14:10.170Z,19.87
2023-04-06T06:16:39.960Z,22.13
2023-04-06T06:19:09.038Z,18.97
2023-04-06T06:21:37.624Z,17.90
2023-04-06T06:24:08.011Z,18.73
2023-04-06T06:26:38.153Z,17.67
2023-04-06T06:29:08.619Z,16.10
2023-04-06T06:31:39.055Z,16.55
2023-04-06T06:34:06.527Z,17.75
2023-04-06T06:36:36.442Z,16.00
2023-04-06T06:39:07.386Z,16.45
2023-04-06T06:41:35.500Z,16.77
2023-04-06T06:44:03.452Z,18.00
2023-04-06T06:46:31.026Z,18.25
2023-04-06T06:48:59.884Z,17.05
2023-04-06T06:51:27.388Z,17.48
2023-04-06T06:53:54.816Z,17.40
2023-04-06T06:56:23.222Z,14.18
2023-04-06T06:58:52.631Z,14.57
2023-04-06T07:01:20.486Z,14.35
2023-04-06T07:03:48.040Z,15.50
2023-04-06T07:06:15.393Z,14.50
2023-04-06T07:08:42.768Z,13.85
2023-04-06T07:11:10.278Z,14.70
2023-04-06T07:13:37.653Z,15.18
2023-04-06T07:16:05.565Z,13.27
2023-04-06T07:18:35.645Z,15.25
2023-04-06T07:23:31.307Z,13.15
2023-04-06T07:25:58.672Z,12.65
2023-04-06T07:28:26.101Z,14.20
2023-04-06T07:30:55.442Z,12.48
2023-04-06T07:33:23.466Z,15.45
2023-04-06T07:35:52.683Z,13.27
2023-04-06T07:38:20.368Z,14.07
2023-04-06T07:40:47.780Z,14.75
2023-04-06T07:43:15.309Z,13.43
2023-04-06T07:45:43.139Z,13.80
2023-04-06T07:48:11.475Z,17.42
2023-04-06T07:50:39.721Z,15.02
2023-04-06T07:53:07.727Z,16.05
2023-04-06T07:55:35.948Z,12.35
2023-04-06T07:58:03.311Z,10.43
2023-04-06T08:00:32.569Z,6.55
2023-04-06T08:03:00.197Z,7.20
2023-04-06T08:05:27.774Z,9.02
2023-04-06T08:07:55.202Z,9.93
2023-04-06T08:10:22.539Z,9.52
2023-04-06T08:12:49.813Z,9.70
2023-04-06T08:15:19.219Z,9.75
2023-04-06T08:17:46.730Z,10.65
2023-04-06T08:20:14.071Z,10.55
2023-04-06T08:22:41.377Z,8.55
2023-04-06T08:25:09.092Z,9.82
2023-04-06T08:27:36.529Z,8.93
2023-04-06T08:30:04.306Z,8.65
2023-04-06T08:32:32.029Z,10.30
2023-04-06T08:34:59.389Z,10.52
2023-04-06T08:37:26.886Z,12.57
2023-04-06T08:39:54.261Z,12.00
2023-04-06T08:42:23.642Z,11.60
2023-04-06T08:44:53.500Z,8.98
2023-04-06T08:47:24.067Z,10.05
2023-04-06T08:49:54.853Z,9.13
2023-04-06T08:52:22.263Z,7.55
2023-04-06T08:54:49.750Z,6.65
2023-04-06T08:57:17.822Z,7.50
2023-04-06T08:59:46.221Z,7.28
2023-04-06T09:02:19.600Z,6.85
2023-04-06T09:04:49.861Z,6.35
2023-04-06T09:07:17.825Z,6.47
2023-04-06T09:09:48.813Z,6.03
2023-04-06T09:12:31.294Z,5.78
2023-04-06T09:14:59.852Z,6.32
2023-04-06T09:17:34.889Z,6.22
2023-04-06T09:20:04.174Z,6.38
2023-04-06T09:22:43.064Z,6.68
2023-04-06T09:25:19.100Z,7.05
2023-04-06T09:27:46.533Z,6.80
2023-04-06T09:30:17.840Z,7.15
2023-04-06T09:32:53.396Z,6.85
2023-04-06T09:35:22.129Z,6.50
2023-04-06T09:37:52.907Z,6.68
2023-04-06T09:40:22.156Z,6.30
2023-04-06T09:42:53.055Z,6.55
2023-04-06T09:45:21.913Z,7.57
2023-04-06T09:47:52.462Z,6.93
2023-04-06T09:50:20.900Z,7.53
2023-04-06T09:52:52.324Z,7.25
2023-04-06T09:55:31.629Z,7.13
2023-04-06T09:58:20.262Z,7.05
2023-04-06T10:01:18.425Z,7.43
2023-04-06T10:04:13.547Z,7.65
2023-04-06T10:06:41.990Z,7.50
2023-04-06T10:09:10.372Z,6.95
2023-04-06T10:11:38.177Z,7.07
2023-04-06T10:14:06.604Z,8.18
2023-04-06T10:16:34.286Z,7.72
2023-04-06T10:19:32.716Z,9.52
2023-04-06T10:22:03.839Z,8.02
2023-04-06T10:24:31.328Z,7.28
2023-04-06T10:27:07.417Z,8.35
2023-04-06T10:29:49.935Z,8.93
2023-04-06T10:32:17.582Z,8.05
2023-04-06T10:34:44.910Z,9.65
2023-04-06T10:37:16.961Z,8.25
2023-04-06T10:39:59.355Z,7.68
2023-04-06T10:42:38.502Z,8.35
2023-04-06T10:45:21.639Z,8.02
2023-04-06T10:47:49.425Z,7.30
2023-04-06T10:50:18.230Z,8.13
2023-04-06T10:52:47.623Z,7.25
2023-04-06T10:55:16.079Z,8.45
2023-04-06T10:57:43.585Z,8.52
2023-04-06T11:00:13.968Z,5.65
2023-04-06T11:02:41.774Z,6.38
2023-04-06T11:05:09.740Z,5.53
2023-04-06T11:07:37.132Z,6.70
2023-04-06T11:10:15.594Z,5.95
2023-04-06T11:12:45.933Z,5.53
2023-04-06T11:15:13.222Z,5.97
2023-04-06T11:17:40.912Z,6.03
2023-04-06T11:20:12.379Z,5.95
2023-04-06T11:22:53.626Z,6.03
2023-04-06T11:25:21.059Z,6.25
2023-04-06T11:27:49.393Z,6.25
2023-04-06T11:30:16.878Z,6.88
2023-04-06T11:32:46.845Z,5.88
2023-04-06T11:35:23.440Z,5.72
2023-04-06T11:37:51.610Z,6.63
2023-04-06T11:40:25.945Z,5.45
2023-04-06T11:42:57.595Z,5.90
2023-04-06T11:45:25.076Z,5.80
2023-04-06T11:48:01.551Z,5.68
2023-04-06T11:50:35.681Z,5.70
2023-04-06T11:53:04.237Z,4.68
2023-04-06T11:55:39.862Z,6.38
2023-04-06T11:58:08.186Z,5.53
2023-04-06T12:00:35.868Z,6.30
2023-04-06T12:03:03.389Z,5.43
2023-04-06T12:05:31.008Z,5.70
2023-04-06T12:08:01.079Z,6.15
2023-04-06T12:10:30.813Z,5.22
2023-04-06T12:12:58.206Z,6.07
2023-04-06T12:15:25.522Z,6.32
2023-04-06T12:17:53.350Z,6.53
2023-04-06T12:20:26.549Z,5.90
2023-04-06T12:22:54.757Z,5.57
2023-04-06T12:25:22.186Z,6.18
2023-04-06T12:27:49.607Z,6.78
2023-04-06T12:30:17.252Z,5.57
2023-04-06T12:32:44.829Z,6.63
2023-04-06T12:35:14.128Z,5.82
2023-04-06T12:37:41.851Z,6.32
2023-04-06T12:40:11.638Z,6.28
2023-04-06T12:42:42.435Z,5.83
2023-04-06T12:47:38.844Z,6.25
2023-04-06T12:50:07.656Z,6.43
2023-04-06T12:52:36.629Z,6.32
2023-04-06T12:55:06.099Z,7.07
2023-04-06T12:57:33.504Z,5.45
2023-04-06T13:00:01.301Z,6.05
2023-04-06T13:02:28.971Z,6.30
2023-04-06T13:04:56.459Z,6.40
2023-04-06T13:07:24.016Z,5.95
2023-04-06T13:09:52.359Z,5.90
2023-04-06T13:12:20.019Z,5.63
2023-04-06T13:14:51.937Z,5.75
2023-04-06T13:17:19.334Z,6.32
2023-04-06T13:19:46.667Z,7.18
2023-04-06T13:22:13.957Z,5.85
2023-04-06T13:24:41.230Z,6.65
2023-04-06T13:27:08.550Z,6.22
2023-04-06T13:29:36.027Z,6.32
2023-04-06T13:32:03.395Z,6.10
2023-04-06T13:34:30.738Z,6.32
2023-04-06T13:36:58.112Z,7.57
2023-04-06T13:39:25.544Z,8.50
2023-04-06T13:41:57.237Z,8.20
2023-04-06T13:44:24.722Z,7.80
2023-04-06T13:46:52.198Z,7.95
2023-04-06T13:49:19.729Z,7.70
2023-04-06T13:51:47.132Z,7.72
2023-04-06T13:54:14.402Z,8.75
2023-04-06T13:56:41.744Z,9.52
2023-04-06T13:59:08.988Z,9.15
2023-04-06T14:01:36.484Z,8.75
2023-04-06T14:04:04.017Z,8.55
2023-04-06T14:06:32.297Z,8.50
2023-04-06T14:09:00.317Z,8.90
2023-04-06T14:11:27.953Z,8.10
2023-04-06T14:13:57.799Z,9.10
2023-04-06T14:16:26.110Z,8.10
2023-04-06T14:18:53.420Z,9.20
2023-04-06T14:21:21.079Z,7.38
2023-04-06T14:23:48.346Z,7.68
2023-04-06T14:26:16.357Z,7.80
2023-04-06T14:28:43.941Z,8.70
2023-04-06T14:31:14.663Z,7.90
2023-04-06T14:33:43.443Z,7.93
2023-04-06T14:36:11.938Z,7.80
2023-04-06T14:38:40.495Z,7.70
2023-04-06T14:41:09.212Z,9.07
2023-04-06T14:43:36.468Z,8.48
2023-04-06T14:46:04.044Z,7.35
2023-04-06T14:48:31.422Z,8.02
2023-04-06T14:50:59.081Z,7.88
2023-04-06T14:53:27.189Z,7.32
2023-04-06T14:55:54.983Z,7.50
2023-04-06T14:58:24.109Z,6.97
2023-04-06T15:01:01.164Z,7.35
2023-04-06T15:03:30.499Z,7.50
2023-04-06T15:05:58.663Z,8.15
2023-04-06T15:08:26.438Z,7.82
2023-04-06T15:10:55.746Z,7.82
2023-04-06T15:13:23.229Z,8.77
2023-04-06T15:15:52.664Z,39.83
2023-04-06T15:18:21.085Z,9.90
2023-04-06T15:20:48.803Z,8.23
2023-04-06T15:23:16.200Z,9.38
2023-04-06T15:25:43.552Z,9.52
2023-04-06T15:28:11.156Z,10.10
2023-04-06T15:30:38.921Z,10.55
2023-04-06T15:33:09.479Z,9.65
2023-04-06T15:35:41.114Z,10.82
2023-04-06T15:38:10.092Z,9.80
2023-04-06T15:40:48.402Z,8.35
2023-04-06T15:43:16.666Z,7.95
2023-04-06T15:45:43.965Z,8.35
2023-04-06T15:48:11.355Z,7.95
2023-04-06T15:50:38.797Z,8.25
2023-04-06T15:53:06.184Z,8.50
2023-04-06T15:55:33.640Z,8.63
2023-04-06T15:58:01.105Z,10.20
2023-04-06T16:00:28.958Z,10.63
2023-04-06T16:02:57.309Z,9.98
2023-04-06T16:05:25.733Z,10.77
2023-04-06T16:07:55.020Z,10.68
2023-04-06T16:10:22.309Z,10.48
2023-04-06T16:12:49.581Z,10.93
2023-04-06T16:15:17.232Z,12.80
2023-04-06T16:17:44.597Z,12.45
2023-04-06T16:20:12.950Z,13.32
2023-04-06T16:22:41.143Z,12.23
2023-04-06T16:25:09.289Z,13.48
2023-04-06T16:27:36.758Z,12.05
2023-04-06T16:30:05.022Z,12.48
2023-04-06T16:32:32.365Z,11.00
2023-04-06T16:34:59.675Z,10.82
2023-04-06T16:37:29.729Z,11.45
2023-04-06T16:39:57.520Z,10.27
2023-04-06T16:42:25.301Z,14.05
2023-04-06T16:44:52.787Z,13.48
2023-04-06T16:47:20.746Z,16.75
2023-04-06T16:49:47.960Z,13.23
2023-04-06T16:52:15.236Z,12.40
2023-04-06T16:54:42.366Z,13.27
2023-04-06T16:57:09.756Z,13.25
2023-04-06T16:59:37.262Z,13.85
2023-04-06T17:02:04.525Z,16.40
2023-04-06T17:04:31.870Z,13.88
2023-04-06T17:06:59.186Z,15.37
2023-04-06T17:09:26.608Z,15.27
2023-04-06T17:11:53.827Z,15.52
2023-04-06T17:14:21.198Z,15.43
2023-04-06T17:16:48.704Z,16.17
2023-04-06T17:19:16.215Z,15.27
2023-04-06T17:21:43.434Z,16.27
2023-04-06T17:24:10.932Z,15.37
2023-04-06T17:26:38.266Z,16.75
2023-04-06T17:29:05.549Z,15.63
2023-04-06T17:31:33.060Z,16.13
2023-04-06T17:34:00.862Z,16.20
2023-04-06T17:36:28.572Z,15.57
2023-04-06T17:38:55.977Z,16.27
2023-04-06T17:41:24.202Z,16.70
2023-04-06T17:43:51.613Z,15.80
2023-04-06T17:46:20.659Z,15.77
2023-04-06T17:48:48.660Z,15.33
2023-04-06T17:51:18.873Z,15.03
2023-04-06T17:53:46.901Z,14.25
2023-04-06T17:56:14.497Z,14.73
2023-04-06T17:58:42.072Z,15.03
2023-04-06T18:01:13.024Z,13.70
2023-04-06T18:03:40.415Z,19.37
2023-04-06T18:06:16.180Z,13.73
2023-04-06T18:08:43.762Z,14.07
2023-04-06T18:11:21.702Z,16.30
2023-04-06T18:13:49.696Z,15.20
2023-04-06T18:16:17.746Z,14.00
2023-04-06T18:18:45.413Z,14.80
2023-04-06T18:21:12.675Z,14.13
2023-04-06T18:23:40.065Z,14.17
2023-04-06T18:26:07.657Z,13.97
2023-04-06T18:28:35.007Z,14.03
2023-04-06T18:31:02.554Z,14.37
2023-04-06T18:33:30.099Z,14.63
2023-04-06T18:35:57.336Z,15.00
2023-04-06T18:38:24.636Z,14.67
2023-04-06T18:40:52.645Z,14.83
2023-04-06T18:43:19.909Z,14.57
2023-04-06T18:45:47.750Z,14.90
2023-04-06T18:48:15.030Z,15.57
2023-04-06T18:50:55.576Z,14.87
2023-04-06T18:53:22.750Z,15.35
2023-04-06T18:55:51.626Z,14.57
2023-04-06T18:58:19.451Z,15.70
2023-04-06T19:00:46.849Z,15.90
2023-04-06T19:03:14.282Z,15.33
2023-04-06T19:05:42.424Z,15.47
2023-04-06T19:08:10.499Z,15.20
2023-04-06T19:10:38.719Z,15.23
2023-04-06T19:13:06.163Z,15.50
2023-04-06T19:15:33.606Z,14.83
2023-04-06T19:18:00.961Z,16.27
2023-04-06T19:20:28.210Z,15.50
2023-04-06T19:25:28.329Z,16.33
2023-04-06T19:27:56.746Z,15.50
2023-04-06T19:30:24.387Z,15.93
2023-04-06T19:32:51.714Z,15.07
2023-04-06T19:35:19.232Z,15.70
2023-04-06T19:37:46.590Z,15.47
2023-04-06T19:40:13.881Z,16.37
2023-04-06T19:42:41.160Z,16.53
2023-04-06T19:45:09.094Z,17.20
2023-04-06T19:47:36.801Z,16.43
2023-04-06T19:50:06.002Z,18.70
2023-04-06T19:52:33.874Z,16.63
2023-04-06T19:55:01.180Z,16.17
2023-04-06T19:57:28.664Z,16.73
2023-04-06T19:59:56.520Z,18.27
2023-04-06T20:02:23.819Z,17.77
2023-04-06T20:04:51.336Z,19.17
2023-04-06T20:07:18.657Z,18.37
2023-04-06T20:09:45.960Z,17.73
2023-04-06T20:12:13.265Z,18.40
2023-04-06T20:14:40.496Z,18.73
2023-04-06T20:17:07.793Z,19.13
2023-04-06T20:19:35.108Z,21.97
2023-04-06T20:22:03.801Z,21.07
2023-04-06T20:24:31.654Z,22.37
2023-04-06T20:26:59.460Z,21.77
2023-04-06T20:29:27.417Z,21.87
2023-04-06T20:31:54.834Z,25.07
2023-04-06T20:34:25.972Z,26.17
2023-04-06T20:36:53.775Z,23.83
2023-04-06T20:39:21.773Z,27.60
2023-04-06T20:41:49.231Z,23.37
2023-04-06T20:44:16.938Z,21.70
2023-04-06T20:46:45.816Z,23.67
2023-04-06T20:49:13.310Z,23.87
2023-04-06T20:51:42.595Z,23.63
2023-04-06T20:54:09.811Z,30.90
2023-04-06T20:56:37.140Z,22.23
2023-04-06T20:59:07.507Z,22.57
2023-04-06T21:01:34.799Z,26.33
2023-04-06T21:04:04.246Z,28.27
2023-04-06T21:06:32.460Z,26.07
2023-04-06T21:09:01.284Z,24.17
2023-04-06T21:11:28.571Z,24.73
2023-04-06T21:13:56.657Z,23.67
2023-04-06T21:16:23.882Z,23.67
2023-04-06T21:18:51.902Z,24.47
2023-04-06T21:21:19.082Z,24.30
2023-04-06T21:23:46.438Z,24.17
2023-04-06T21:26:13.784Z,28.77
2023-04-06T21:28:41.003Z,26.60
2023-04-06T21:31:09.663Z,26.10
2023-04-06T21:33:36.924Z,27.50
2023-04-06T21:36:08.603Z,33.37
2023-04-06T21:38:35.899Z,29.00
2023-04-06T21:41:03.508Z,27.33
2023-04-06T21:43:30.927Z,27.67
2023-04-06T21:45:58.146Z,26.93
2023-04-06T21:48:25.434Z,27.23
2023-04-06T21:50:52.839Z,26.97
2023-04-06T21:53:20.251Z,25.53
2023-04-06T21:55:48.156Z,25.77
2023-04-06T21:58:15.959Z,25.90
2023-04-06T22:00:43.461Z,26.40
2023-04-06T22:03:11.238Z,26.57
2023-04-06T22:05:38.644Z,26.03
2023-04-06T22:08:05.943Z,28.80
2023-04-06T22:10:33.232Z,28.70
2023-04-06T22:13:00.492Z,27.63
2023-04-06T22:15:27.704Z,26.80
2023-04-06T22:17:55.066Z,28.63
2023-04-06T22:20:22.291Z,26.75
2023-04-06T22:22:50.094Z,26.17
2023-04-06T22:25:17.353Z,28.43
2023-04-06T22:27:44.815Z,25.33
2023-04-06T22:30:12.411Z,24.50
2023-04-06T22:32:39.742Z,25.80
2023-04-06T22:35:08.132Z,26.33
2023-04-06T22:37:35.476Z,26.77
2023-04-06T22:40:02.886Z,26.93
2023-04-06T22:42:30.148Z,27.60
2023-04-06T22:44:57.293Z,24.73
2023-04-06T22:47:24.601Z,25.07
2023-04-06T22:49:51.964Z,25.87
2023-04-06T22:52:19.202Z,25.93
2023-04-06T22:54:46.594Z,26.50
2023-04-06T22:57:13.906Z,26.97
2023-04-06T22:59:41.318Z,27.17
2023-04-06T23:02:08.969Z,26.20
2023-04-06T23:04:36.375Z,28.63
2023-04-06T23:07:03.556Z,26.40
2023-04-06T23:09:31.231Z,26.83
2023-04-06T23:11:58.447Z,26.13
2023-04-06T23:14:25.665Z,26.40
2023-04-06T23:16:52.879Z,25.83
2023-04-06T23:19:20.195Z,26.50
2023-04-06T23:21:47.532Z,26.70
2023-04-06T23:24:14.761Z,25.83
2023-04-06T23:26:41.979Z,26.13
2023-04-06T23:29:09.202Z,26.60
2023-04-06T23:31:36.520Z,26.27
2023-04-06T23:34:04.047Z,26.27
2023-04-06T23:36:32.117Z,27.53
2023-04-06T23:38:59.299Z,28.23
2023-04-06T23:41:27.743Z,27.10
2023-04-06T23:43:56.137Z,26.83
2023-04-06T23:46:23.524Z,26.23
2023-04-06T23:48:50.857Z,28.93
2023-04-06T23:51:18.131Z,28.10
2023-04-06T23:53:46.294Z,29.07
2023-04-06T23:56:13.554Z,27.40
2023-04-06T23:58:41.180Z,29.90
